Latest Weather Observations for Ernabella/Pukatja

IDD60801

Issued at 8:01 pm CST Wednesday 2 September 2015 (issued every 30 minutes, with the page automatically refreshed every 10 minutes)

About weather observations | Map of weather stations | Latest weather observations for NT | Other Formats
Station Details ID: 016097 Name: PUKATJA Lat: -26.26 Lon: 132.18 Height: 703.2 m
Data from the previous 72 hours. | See also: Recent months at Ernabella/Pukatja
Date/Time
CST
Temp
°C
App
Temp
°C
Dew
Point
Rel
Hum
%
Delta-T
°C
Wind Press
QNH
hPa
Press
MSL
hPa
Rain
since 9 am
mm
Dir
 
Spd
km/h
Gust
km/h
Spd
kts
Gust
kts
02/08:00pm 14.2 7.7 -2.2 32 6.8 SSW 22 30 12 16 1021.8 - 0.0
02/07:30pm 14.1 9.0 -2.3 32 6.8 SW 15 20 8 11 1021.4 - 0.0
02/07:00pm 14.6 8.5 -2.3 31 7.1 SSW 20 33 11 18 1021.0 - 0.0
02/06:30pm 15.1 8.6 -2.3 30 7.3 SW 22 32 12 17 1020.8 - 0.0
02/06:00pm 16.0 8.7 -2.5 28 7.8 SW 26 33 14 18 1020.7 1018.2 0.0
02/05:30pm 16.4 8.9 -1.7 29 7.8 SW 28 37 15 20 1020.4 - 0.0
02/05:00pm 17.0 9.9 -1.1 29 7.9 SW 26 39 14 21 1019.9 - 0.0
02/04:30pm 16.9 9.4 -1.2 29 7.9 SSW 28 43 15 23 1019.5 - 0.0
02/04:00pm 17.3 9.0 -1.9 27 8.3 SSW 32 41 17 22 1019.5 - 0.0
02/03:30pm 17.2 8.9 -1.9 27 8.2 SSW 32 41 17 22 1019.3 - 0.0
02/03:00pm 17.3 9.0 -1.4 28 8.1 SSW 32 44 17 24 1019.1 1016.6 0.0
02/02:30pm 17.1 8.6 -1.5 28 8.1 SW 33 46 18 25 1019.2 - 0.0
02/02:07pm 16.0 8.5 -1.1 31 7.4 SW 28 46 15 25 1019.2 - 0.0
02/02:00pm 16.1 8.7 -0.6 32 7.3 WSW 28 41 15 22 1019.2 - 0.0
02/01:30pm 15.3 8.0 0.3 36 6.7 SW 28 39 15 21 1019.6 - 0.0
02/01:00pm 14.7 7.9 0.9 39 6.2 SW 26 39 14 21 1019.8 - 0.0
02/12:30pm 14.4 7.4 1.7 42 5.8 SW 28 41 15 22 1020.2 - 0.0
02/12:00pm 13.8 6.8 1.8 44 5.4 SW 28 43 15 23 1020.7 1018.2 0.0
02/11:30am 13.3 5.4 1.3 44 5.3 SW 32 43 17 23 1020.9 - 0.0
02/11:00am 12.5 4.6 0.9 45 5.1 SW 32 43 17 23 1020.9 - 0.0
02/10:30am 11.1 3.0 -0.4 45 4.8 WSW 32 41 17 22 1021.0 - 0.0
02/10:00am 10.5 2.4 -0.3 47 4.5 WSW 32 41 17 22 1021.0 - 0.0
02/09:30am 9.7 1.2 -1.6 45 4.6 WSW 33 44 18 24 1020.8 - 0.0
02/09:00am 9.2 1.2 -2.7 43 4.6 WSW 30 43 16 23 1020.6 1018.1 0.0
02/08:30am 8.9 1.1 -3.6 41 4.8 WSW 28 35 15 19 1020.1 - 0.0
02/08:00am 8.1 0.8 -2.5 47 4.1 WSW 26 41 14 22 1019.6 - 0.0
02/07:30am 7.5 2.3 -2.8 48 3.9 WSW 15 30 8 16 1019.1 - 0.0
02/07:00am 6.7 2.6 -2.7 51 3.6 WSW 9 17 5 9 1018.7 - 0.0
02/06:30am 7.2 3.1 -3.1 48 3.9 WSW 9 19 5 10 1018.0 - 0.0
02/06:00am 7.9 -0.6 -3.3 45 4.2 SW 32 43 17 23 1017.6 1015.0 0.0
02/05:39am 8.2 -0.5 -3.3 44 4.4 SW 33 52 18 28 1017.0 - 0.0
02/05:30am 8.3 -1.2 -3.5 43 4.5 SW 37 50 20 27 1016.8 - 0.0
02/05:00am 8.8 -1.8 -3.7 41 4.8 SW 43 56 23 30 1016.4 - 0.0
02/04:30am 9.2 1.0 -4.0 39 5.0 WSW 30 41 16 22 1016.2 - 0.0
02/04:00am 9.5 -0.4 -4.1 38 5.2 SW 39 57 21 31 1016.0 - 0.0
02/03:57am 9.5 -0.4 -3.7 39 5.1 SW 39 57 21 31 1015.9 - 0.0
02/03:30am 9.6 1.1 -3.3 40 5.0 SW 32 43 17 23 1016.2 - 0.0
02/03:11am 9.9 1.9 -2.7 41 5.0 SSW 30 48 16 26 1016.4 - 0.0
02/03:00am 10.0 2.3 -2.6 41 5.0 SSW 28 39 15 21 1016.3 1013.7 0.0
02/02:38am 10.4 2.8 -2.3 41 5.1 SSW 28 46 15 25 1016.2 - 0.0
02/02:30am 10.5 2.1 -2.5 40 5.2 SSW 32 46 17 25 1016.1 - 0.0
02/02:07am 11.0 3.2 -0.8 44 4.9 SSW 30 48 16 26 1016.1 - 0.0
02/02:00am 11.2 2.9 -0.6 44 4.9 SSW 33 50 18 27 1016.1 - 0.0
02/01:48am 11.4 3.0 -0.7 43 5.1 SSW 33 52 18 28 1015.8 - 0.0
02/01:30am 11.7 2.3 0.2 45 4.9 SSW 39 54 21 29 1015.6 - 0.0
02/01:00am 12.3 2.1 1.0 46 5.0 SW 44 61 24 33 1015.3 - 0.0
02/12:54am 12.3 3.1 1.0 46 5.0 SW 39 57 21 31 1015.5 - 0.0
02/12:30am 12.7 2.8 1.7 47 4.9 SW 43 56 23 30 1015.3 - 0.0
02/12:14am 13.3 2.6 2.5 48 4.9 SW 48 67 26 36 1015.0 - 0.0
02/12:00am 14.5 3.3 1.8 42 5.8 SW 50 63 27 34 1014.4 1011.8 0.0
 
Date/Time
CST
Temp
°C
App
Temp
°C
Dew
Point
Rel
Hum
%
Delta-T
°C
Wind Press
QNH
hPa
Press
MSL
hPa
Rain
since 9 am
mm
Dir
 
Spd
km/h
Gust
km/h
Spd
kts
Gust
kts
01/11:30pm 16.7 6.9 -0.1 32 7.5 SW 41 54 22 29 1013.7 - 0.0
01/11:16pm 17.2 8.7 0.8 33 7.5 SW 35 54 19 29 1013.7 - 0.0
01/11:00pm 18.2 10.0 0.4 30 8.1 WSW 33 46 18 25 1013.5 - 0.0
01/10:30pm 18.4 12.8 1.4 32 7.9 WSW 20 30 11 16 1013.3 - 0.0
01/10:00pm 18.4 12.6 2.3 34 7.6 WSW 22 30 12 16 1013.3 - 0.0
01/09:30pm 18.8 13.1 2.6 34 7.8 WSW 22 28 12 15 1013.1 - 0.0
01/09:00pm 19.3 14.2 3.1 34 7.9 WSW 19 26 10 14 1012.8 1010.2 0.0
01/08:30pm 19.9 14.3 3.2 33 8.2 SW 22 30 12 16 1012.2 - 0.0
01/08:00pm 21.0 14.2 3.2 31 8.8 WSW 28 39 15 21 1011.5 - 0.0
01/07:30pm 21.5 17.4 4.1 32 8.7 WSW 15 22 8 12 1011.0 - 0.0
01/07:00pm 22.2 17.3 2.3 27 9.7 WNW 17 24 9 13 1010.3 - 0.0
01/06:30pm 23.0 17.2 2.5 26 10.1 W 22 32 12 17 1009.8 - 0.0
01/06:00pm 23.5 17.3 2.4 25 10.4 WNW 24 37 13 20 1009.4 1006.7 0.0
01/05:30pm 24.5 18.8 2.6 24 10.9 W 22 33 12 18 1009.0 - 0.0
01/05:00pm 25.2 19.0 2.0 22 11.5 W 24 35 13 19 1008.8 - 0.0
01/04:30pm 24.3 18.3 3.6 26 10.5 W 24 32 13 17 1008.8 - 0.0
01/04:00pm 24.2 18.4 4.6 28 10.1 W 24 35 13 19 1008.8 - 0.0
01/03:30pm 25.1 19.2 5.8 29 10.2 WNW 26 41 14 22 1009.0 - 0.0
01/03:00pm 24.9 18.7 6.1 30 10.0 W 28 39 15 21 1009.2 1006.6 0.0
01/02:53pm 24.7 18.1 6.0 30 9.9 W 30 48 16 26 1009.2 - 0.0
01/02:30pm 24.1 18.5 7.3 34 9.1 W 26 35 14 19 1009.4 - 0.0
01/02:00pm 25.2 19.5 8.2 34 9.4 W 28 41 15 22 1009.9 - 0.0
01/01:44pm 25.6 19.1 6.3 29 10.3 W 30 50 16 27 1009.9 - 0.0
01/01:30pm 24.8 18.7 8.3 35 9.1 WNW 30 44 16 24 1010.0 - 0.0
01/01:00pm 23.3 18.9 11.7 48 6.7 WNW 26 35 14 19 1010.5 - 0.0
01/12:30pm 23.1 19.2 12.1 50 6.4 WNW 24 35 13 19 1011.2 - 0.0
01/12:00pm 21.5 17.2 12.1 55 5.5 WNW 26 43 14 23 1011.5 1008.8 0.0
01/11:30am 21.1 17.1 11.7 55 5.4 WNW 24 35 13 19 1011.8 - 0.0
01/11:00am 21.3 16.9 11.6 54 5.6 NNW 26 43 14 23 1012.1 - 0.0
01/10:30am 19.8 14.7 10.5 55 5.2 NW 28 41 15 22 1012.7 - 0.0
01/10:00am 19.6 15.7 12.1 62 4.3 NW 24 33 13 18 1013.1 - 0.0
01/09:30am 18.8 16.5 11.9 64 3.9 NNW 15 24 8 13 1012.9 - 0.0
01/09:00am 17.8 15.7 12.3 70 3.2 N 15 19 8 10 1013.0 1010.4 3.8
01/08:30am 16.8 14.9 11.9 73 2.8 N 13 17 7 9 1012.8 - 3.8
01/08:00am 15.5 13.9 11.5 77 2.2 N 11 17 6 9 1012.7 - 3.8
01/07:30am 15.5 13.0 11.1 75 2.4 N 15 20 8 11 1012.5 - 3.8
01/07:00am 14.3 12.5 10.9 80 1.9 N 11 13 6 7 1012.0 - 3.8
01/06:30am 14.3 12.6 11.3 82 1.7 N 11 13 6 7 1012.2 - 3.8
01/06:00am 14.3 12.6 11.3 82 1.7 NNE 11 13 6 7 1012.1 1009.5 3.8
01/05:30am 14.3 12.6 11.1 81 1.8 N 11 13 6 7 1012.2 - 3.8
01/05:00am 13.6 12.7 10.6 82 1.6 NW 6 9 3 5 1012.1 - 3.8
01/04:30am 13.4 12.1 10.0 80 1.8 N 7 11 4 6 1012.5 - 3.8
01/04:00am 13.3 10.7 9.5 78 2.0 N 13 24 7 13 1012.9 - 3.8
01/03:30am 13.5 11.4 11.0 85 1.4 N 13 20 7 11 1012.9 - 3.6
01/03:00am 13.8 13.6 12.9 94 0.5 NE 6 7 3 4 1014.2 1011.6 3.4
01/02:30am 13.8 14.1 13.3 97 0.3 N 4 6 2 3 1014.1 - 3.4
01/02:00am 13.2 13.7 12.9 98 0.2 E 2 7 1 4 1013.4 - 3.2
01/01:30am 13.6 12.9 13.3 98 0.2 E 9 15 5 8 1014.1 - 3.2
01/01:00am 13.5 12.0 13.0 97 0.3 ENE 13 17 7 9 1014.7 - 3.2
01/12:30am 14.0 12.9 13.2 95 0.5 E 11 13 6 7 1015.3 - 3.2
01/12:00am 14.6 13.7 13.6 94 0.6 SE 11 15 6 8 1015.5 1012.9 3.2
 
Date/Time
CST
Temp
°C
App
Temp
°C
Dew
Point
Rel
Hum
%
Delta-T
°C
Wind Press
QNH
hPa
Press
MSL
hPa
Rain
since 9 am
mm
Dir
 
Spd
km/h
Gust
km/h
Spd
kts
Gust
kts
31/11:30pm 14.0 12.6 13.5 97 0.3 NE 13 20 7 11 1015.5 - 3.2
31/11:00pm 14.0 12.3 13.7 98 0.2 E 15 19 8 10 1015.9 - 3.2
31/10:30pm 14.3 12.3 12.7 90 0.9 NW 15 20 8 11 1017.4 - 3.0
31/10:00pm 14.5 13.5 12.2 86 1.3 NE 9 13 5 7 1016.3 - 2.0
31/09:30pm 14.1 13.4 13.3 95 0.5 ENE 9 11 5 6 1016.3 - 2.0
31/09:00pm 13.9 13.5 13.1 95 0.5 N 7 7 4 4 1016.0 1014.9 1.8
31/08:30pm 14.6 13.8 13.0 90 0.9 W 9 11 5 6 1016.0 - 1.8
31/08:00pm 15.7 13.8 11.9 78 2.1 S 13 20 7 11 1015.8 - 1.8
31/07:30pm 16.0 12.9 12.2 78 2.2 S 20 33 11 18 1016.0 - 1.8
31/07:23pm 15.8 10.9 12.4 80 1.9 SSW 30 48 16 26 1016.3 - 1.8
31/07:00pm 15.3 8.9 13.1 87 1.3 SW 39 52 21 28 1017.0 - 1.8
31/06:53pm 15.4 6.8 12.9 85 1.4 WSW 50 69 27 37 1017.0 - 1.4
31/06:44pm 19.6 8.8 9.8 53 5.4 WSW 57 69 31 37 1016.5 - 0.0
31/06:43pm 20.6 14.3 9.8 50 6.0 WSW 33 69 18 37 1016.2 - 0.0
31/06:30pm 21.1 19.5 8.7 45 6.8 E 7 9 4 5 1014.2 - 0.0
31/06:00pm 21.6 19.5 8.1 42 7.3 NNE 9 13 5 7 1014.0 1012.8 0.0
31/05:30pm 23.3 20.3 7.8 37 8.4 NNE 13 15 7 8 1013.6 - 0.0
31/05:00pm 23.7 21.2 8.2 37 8.5 NNE 11 15 6 8 1013.7 - 0.0
31/04:30pm 23.6 21.6 8.5 38 8.3 NNW 9 13 5 7 1014.2 - 0.0
31/04:00pm 22.6 19.5 11.7 50 6.3 NNW 19 32 10 17 1014.6 - 0.0
31/03:30pm 25.2 20.7 5.9 29 10.3 N 19 28 10 15 1014.6 - 0.0
31/03:00pm 25.5 21.0 6.2 29 10.3 WNW 19 30 10 16 1015.0 1013.9 0.0
31/02:30pm 25.1 20.8 6.8 31 9.9 NW 19 28 10 15 1015.8 - 0.0
31/02:00pm 25.6 21.0 6.7 30 10.2 W 20 32 11 17 1016.2 - 0.0
31/01:30pm 24.9 20.8 6.1 30 10.0 WNW 17 24 9 13 1016.5 - 0.0
31/01:00pm 24.7 19.8 6.9 32 9.6 NNW 22 28 12 15 1017.0 - 0.0
31/12:30pm 24.4 19.8 6.6 32 9.5 NW 20 30 11 16 1017.6 - 0.0
31/12:00pm 23.2 18.4 7.3 36 8.5 NW 22 32 12 17 1018.3 1017.3 0.0
31/11:30am 22.8 18.0 7.4 37 8.3 NNW 22 33 12 18 1018.8 - 0.0
31/11:00am 22.2 18.2 6.8 37 8.2 NNW 17 30 9 16 1019.2 - 0.0
31/10:30am 19.8 15.6 3.9 35 7.9 N 15 24 8 13 1019.6 - 0.0
31/10:00am 17.9 13.7 1.4 33 7.7 N 13 19 7 10 1019.8 - 0.0
31/09:30am 17.2 13.6 0.8 33 7.5 NE 9 13 5 7 1019.6 - 0.0
31/09:00am 16.1 11.6 -0.2 33 7.2 N 13 17 7 9 1019.9 1018.9 0.0
31/08:30am 16.1 12.3 -0.6 32 7.3 N 9 13 5 7 1019.9 - 0.0
31/08:00am 16.0 10.6 -1.1 31 7.4 N 17 33 9 18 1019.7 - 0.0
31/07:30am 15.8 10.8 -1.3 31 7.4 NNE 15 26 8 14 1019.4 - 0.0
31/07:00am 16.5 12.2 -1.6 29 7.8 N 11 20 6 11 1019.0 - 0.0
31/06:30am 16.4 11.7 -1.7 29 7.8 N 13 22 7 12 1018.8 - 0.0
31/06:00am 16.3 10.5 -1.7 29 7.7 N 19 28 10 15 1018.5 1017.4 0.0
31/05:30am 16.4 10.4 -1.7 29 7.8 N 20 33 11 18 1017.9 - 0.0
31/05:00am 16.4 12.2 -1.2 30 7.6 N 11 20 6 11 1017.6 - 0.0
31/04:30am 16.5 11.5 -1.1 30 7.7 N 15 24 8 13 1017.8 - 0.0
31/04:00am 16.5 10.8 -1.1 30 7.7 N 19 26 10 14 1018.2 - 0.0
31/03:30am 16.7 11.1 -0.1 32 7.5 N 19 30 10 16 1018.9 - 0.0
31/03:00am 16.1 10.8 1.8 38 6.6 N 19 28 10 15 1019.2 1018.2 0.0
31/02:30am 16.5 12.2 1.0 35 7.1 NNE 13 19 7 10 1019.8 - 0.0
31/02:00am 15.7 13.0 0.3 35 6.9 N 4 6 2 3 1020.5 - 0.0
31/01:30am 15.9 12.3 0.5 35 6.9 NE 9 11 5 6 1020.8 - 0.0
31/01:00am 16.4 13.3 0.1 33 7.3 ENE 6 9 3 5 1021.4 - 0.0
31/12:30am 16.7 12.7 0.8 34 7.2 ENE 11 13 6 7 1021.3 - 0.0
31/12:00am 17.4 13.8 0.6 32 7.6 NE 9 11 5 6 1021.4 1020.4 0.0
 
Date/Time
CST
Temp
°C
App
Temp
°C
Dew
Point
Rel
Hum
%
Delta-T
°C
Wind Press
QNH
hPa
Press
MSL
hPa
Rain
since 9 am
mm
Dir
 
Spd
km/h
Gust
km/h
Spd
kts
Gust
kts
30/11:30pm 18.8 14.8 0.4 29 8.4 SE 11 15 6 8 1021.7 - 0.0
30/11:00pm 18.8 14.4 0.4 29 8.4 ESE 13 19 7 10 1021.1 - 0.0
30/10:30pm 18.4 14.8 0.5 30 8.2 ENE 9 11 5 6 1021.3 - 0.0
30/10:00pm 19.3 15.3 0.8 29 8.6 E 11 15 6 8 1021.2 - 0.0
30/09:30pm 18.2 16.2 2.1 34 7.6 E 2 11 1 6 1020.8 - 0.0
30/09:00pm 17.7 14.9 2.1 35 7.3 E 6 7 3 4 1020.4 1019.4 0.0
30/08:30pm 18.2 15.2 2.1 34 7.6 ENE 7 9 4 5 1020.2 - 0.0

Other Formats:

Comma delimited format used in spreadsheet applications
http://www.bom.gov.au/fwo/IDD60801/IDD60801.94474.axf

JavaScript Object Notation format (JSON) in row-major order
http://www.bom.gov.au/fwo/IDD60801/IDD60801.94474.json